CYYQ

Churchill Airport

Churchill, Manitoba, Canada
METAR CYYQ 242000Z 34012KT 10SM -SN BKN023 M10/M13 A2943 RMK SC7 SLP971
Observed Flight Rules
Feb-24 @ 20:00 UTC (16 minutes ago) Marginal Visual Flight Rules
Wind Visibility Clouds Conditions
340° at 12 knots 10 miles
  • Broken at 2,300' AGL
  • Light Snow
Temperatures Readings
Current -10°C / 14°F
Dewpoint -13°C / 9°F
Humidity 79%
Altimeter 29.43" Hg
Pressure 997.1 hPa
Elevation 29
METAR CYYQ 242000Z 34012KT 10SM -SN BKN023 M10/M13 A2943 RMK SC7 SLP971
Observed Flight Rules
Feb-24 @ 20:00 UTC
(16 minutes ago)
MVFR
Wind Visibility
340° at 12 knots 10 miles
Clouds
  • Broken at 2,300' AGL
Conditions
  • Light Snow
Temperature Dewpoint
-10°C / 14°F -13°C / 9°F
Humidity Altimeter Pressure
79% 29.43" Hg 997.1 hPa